Time;durP1;ratioP1;P1;durP2;ratioP2;P2;SDS_P1;SDS_P2;PMS_P1;PMS_P2;Temp;Humidity;BMP_temperature;BMP_pressure;BME280_temperature;BME280_humidity;BME280_pressure;Samples;Min_cycle;Max_cycle;Signal;HPM_P1;HPM_P2
2023/02/04 00:01:55;;;;;;;;;;;;;;;25.01;31.15;94898.44;4941346;29;1468;-68
2023/02/04 00:04:20;;;;;;;;;;;;;;;25.01;31.24;94903.00;4945841;29;1495;-67
2023/02/04 00:06:45;;;;;;;;;;;;;;;24.99;31.48;94897.03;4947695;29;1308;-67
2023/02/04 00:09:10;;;;;;;;;;;;;;;24.99;31.31;94894.34;4942897;29;1324;-67
2023/02/04 00:11:36;;;;;;;;;;;;;;;25.01;31.34;94897.63;4944688;28;1446;-68
2023/02/04 00:14:01;;;;;;;;;;;;;;;25.01;31.52;94892.25;4943325;29;1299;-67
2023/02/04 00:16:26;;;;;;;;;;;;;;;25.00;31.49;94886.06;4951091;29;1911;-67
2023/02/04 00:18:52;;;;;;;;;;;;;;;25.01;31.36;94889.56;4957550;28;1419;-68
2023/02/04 00:21:17;;;;;;;;;;;;;;;25.01;31.62;94878.84;4941257;28;1489;-67
2023/02/04 00:23:42;;;;;;;;;;;;;;;25.01;31.41;94879.63;4959922;28;1669;-68
2023/02/04 00:26:07;;;;;;;;;;;;;;;25.01;31.63;94878.84;4938718;29;1419;-68
2023/02/04 00:28:33;;;;;;;;;;;;;;;25.02;31.65;94881.28;4954212;29;1319;-67
2023/02/04 00:30:58;;;;;;;;;;;;;;;25.00;31.64;94875.34;4950469;29;1304;-68
2023/02/04 00:33:23;;;;;;;;;;;;;;;25.01;31.63;94879.63;4931607;29;1474;-68
2023/02/04 00:35:49;;;;;;;;;;;;;;;25.00;31.49;94872.66;4946979;28;1911;-67
2023/02/04 00:38:14;;;;;;;;;;;;;;;25.02;31.72;94877.81;4947705;29;1318;-69
2023/02/04 00:40:39;;;;;;;;;;;;;;;25.03;31.71;94877.53;4947723;28;1472;-68
2023/02/04 00:43:04;;;;;;;;;;;;;;;25.05;31.80;94874.66;4952392;29;1422;-67
2023/02/04 00:45:30;;;;;;;;;;;;;;;25.07;31.56;94873.34;4947183;29;1252;-66
2023/02/04 00:47:56;;;;;;;;;;;;;;;25.07;31.69;94872.50;4941779;29;1317;-68
2023/02/04 00:50:21;;;;;;;;;;;;;;;25.04;31.70;94878.34;4945853;29;1264;-68
2023/02/04 00:52:47;;;;;;;;;;;;;;;25.04;31.92;94867.63;4943113;29;1411;-68
2023/02/04 00:55:14;;;;;;;;;;;;;;;25.04;31.83;94867.63;4942394;28;1974;-67
2023/02/04 00:57:39;;;;;;;;;;;;;;;25.02;31.71;94873.25;4950400;28;1283;-68
2023/02/04 01:00:05;;;;;;;;;;;;;;;25.03;31.72;94866.00;4947215;29;1465;-68
2023/02/04 01:02:31;;;;;;;;;;;;;;;25.03;31.78;94866.00;4942454;28;1458;-67
2023/02/04 01:04:56;;;;;;;;;;;;;;;25.03;32.10;94863.31;4953466;29;1355;-68
2023/02/04 01:07:21;;;;;;;;;;;;;;;25.04;31.79;94843.47;4938887;28;1457;-68
2023/02/04 01:09:46;;;;;;;;;;;;;;;25.03;32.05;94844.53;4946851;29;1410;-68
2023/02/04 01:12:12;;;;;;;;;;;;;;;25.03;31.95;94831.09;4947551;29;1351;-67
2023/02/04 01:14:37;;;;;;;;;;;;;;;25.05;32.22;94832.50;4957665;29;1906;-68
2023/02/04 01:17:02;;;;;;;;;;;;;;;25.04;31.99;94830.03;4968964;28;1446;-68
2023/02/04 01:19:27;;;;;;;;;;;;;;;25.05;32.30;94823.66;4962009;28;1434;-68
2023/02/04 01:21:53;;;;;;;;;;;;;;;25.06;32.17;94823.38;4939497;29;1315;-68
2023/02/04 01:24:18;;;;;;;;;;;;;;;25.07;32.24;94814.31;4952028;29;1426;-68
2023/02/04 01:26:43;;;;;;;;;;;;;;;25.07;32.52;94818.84;4956684;29;1430;-68
2023/02/04 01:29:09;;;;;;;;;;;;;;;25.07;32.52;94813.47;4948439;28;1489;-68
2023/02/04 01:31:34;;;;;;;;;;;;;;;25.07;32.53;94800.88;4957116;28;1462;-68
2023/02/04 01:34:00;;;;;;;;;;;;;;;25.07;32.53;94813.47;4972525;28;1485;-68
2023/02/04 01:36:25;;;;;;;;;;;;;;;25.06;32.35;94793.06;4957856;28;1898;-68
2023/02/04 01:38:51;;;;;;;;;;;;;;;25.06;32.47;94785.81;4955984;28;1442;-67
2023/02/04 01:41:17;;;;;;;;;;;;;;;25.07;32.65;94787.47;4947113;28;1362;-67
2023/02/04 01:43:43;;;;;;;;;;;;;;;25.08;32.81;94783.72;4947018;28;1470;-67
2023/02/04 01:46:08;;;;;;;;;;;;;;;25.09;32.70;94784.53;4953598;29;1406;-67
2023/02/04 01:48:33;;;;;;;;;;;;;;;25.08;32.75;94772.16;4956105;28;1406;-67
2023/02/04 01:51:04;;;;;;;;;;;;;;;25.08;32.58;94774.84;4946498;28;1354;-67
2023/02/04 01:53:30;;;;;;;;;;;;;;;25.07;32.71;94770.50;4942786;28;1229;-68
2023/02/04 01:55:55;;;;;;;;;;;;;;;25.07;32.80;94776.72;4946327;28;1919;-68
2023/02/04 01:58:21;;;;;;;;;;;;;;;25.08;32.75;94777.53;4949458;29;1399;-69
2023/02/04 02:00:46;;;;;;;;;;;;;;;25.07;32.86;94770.50;4941591;29;1466;-68
2023/02/04 02:03:11;;;;;;;;;;;;;;;25.06;32.83;94768.91;4935793;29;1327;-68
2023/02/04 02:05:51;;;;;;;;;;;;;;;25.07;32.60;94773.19;4946487;28;1327;-68
2023/02/04 02:08:16;;;;;;;;;;;;;;;25.07;32.84;94746.34;4941958;28;1398;-68
2023/02/04 02:10:43;;;;;;;;;;;;;;;25.06;33.06;94742.88;4944886;28;1394;-68
2023/02/04 02:13:09;;;;;;;;;;;;;;;25.08;32.98;94748.00;4946917;29;1537;-68
2023/02/04 02:15:35;;;;;;;;;;;;;;;25.06;33.00;94758.97;4941213;28;2189;-68
2023/02/04 02:18:00;;;;;;;;;;;;;;;25.08;32.90;94750.69;4953345;29;1532;-67
2023/02/04 02:20:28;;;;;;;;;;;;;;;25.08;33.08;94745.31;4947270;29;1339;-69
2023/02/04 02:23:02;;;;;;;;;;;;;;;25.08;32.75;94738.09;4952127;28;1315;-67
2023/02/04 02:25:28;;;;;;;;;;;;;;;25.06;33.10;94737.50;4939159;29;1403;-66
2023/02/04 02:27:54;;;;;;;;;;;;;;;25.07;33.28;94736.47;4947548;28;1279;-68
2023/02/04 02:30:19;;;;;;;;;;;;;;;25.08;33.15;94715.81;4939807;29;1328;-67
2023/02/04 02:32:46;;;;;;;;;;;;;;;25.08;33.06;94708.56;4943624;29;1328;-67
2023/02/04 02:35:12;;;;;;;;;;;;;;;25.08;32.93;94705.06;4946629;29;1962;-67
2023/02/04 02:37:37;;;;;;;;;;;;;;;25.07;33.31;94696.22;4953015;28;1423;-68
2023/02/04 02:40:03;;;;;;;;;;;;;;;25.08;33.06;94681.72;4944260;29;1362;-67
2023/02/04 02:42:29;;;;;;;;;;;;;;;25.09;33.00;94669.09;4954040;28;1497;-67
2023/02/04 02:44:54;;;;;;;;;;;;;;;25.12;32.96;94660.56;4954937;28;1334;-68
2023/02/04 02:47:20;;;;;;;;;;;;;;;25.11;33.12;94667.00;4953891;29;1347;-67
2023/02/04 02:49:47;;;;;;;;;;;;;;;25.10;33.07;94662.66;4943192;29;1481;-62
2023/02/04 02:52:13;;;;;;;;;;;;;;;25.11;33.06;94648.22;4945860;28;1371;-63
2023/02/04 02:54:39;;;;;;;;;;;;;;;25.09;33.13;94651.13;4963208;28;1980;-63
2023/02/04 02:57:10;;;;;;;;;;;;;;;25.10;33.19;94654.63;4950885;28;1441;-70
2023/02/04 02:59:35;;;;;;;;;;;;;;;25.09;33.03;94656.50;4950960;28;1228;-68
2023/02/04 03:02:02;;;;;;;;;;;;;;;25.11;32.84;94648.22;4948562;29;1303;-68
2023/02/04 03:04:29;;;;;;;;;;;;;;;25.12;32.87;94665.94;4943721;29;1422;-69
2023/02/04 03:06:55;;;;;;;;;;;;;;;25.11;33.34;94675.06;4940017;29;1332;-69
2023/02/04 03:09:20;;;;;;;;;;;;;;;25.11;32.91;94680.41;4941512;29;1387;-69
2023/02/04 03:11:46;;;;;;;;;;;;;;;25.09;33.06;94675.28;4938087;28;1319;-68
2023/02/04 03:14:11;;;;;;;;;;;;;;;25.09;33.21;94666.41;4942883;28;1330;-69
2023/02/04 03:16:37;;;;;;;;;;;;;;;25.08;32.95;94667.50;4940047;29;1902;-69
2023/02/04 03:19:03;;;;;;;;;;;;;;;25.09;32.90;94672.59;4939156;29;1317;-70
2023/02/04 03:21:29;;;;;;;;;;;;;;;25.09;32.78;94677.16;4941117;29;1378;-69
2023/02/04 03:23:55;;;;;;;;;;;;;;;25.07;32.72;94673.91;4929705;28;1397;-70
2023/02/04 03:26:24;;;;;;;;;;;;;;;25.07;32.91;94668.53;4968526;28;1319;-69
2023/02/04 03:28:49;;;;;;;;;;;;;;;25.08;32.83;94664.81;4948252;28;1378;-70
2023/02/04 03:31:14;;;;;;;;;;;;;;;25.08;33.03;94651.38;4950010;29;1379;-70
2023/02/04 03:33:41;;;;;;;;;;;;;;;25.09;32.97;94655.69;4937055;28;1307;-69
2023/02/04 03:36:06;;;;;;;;;;;;;;;25.10;32.92;94657.31;4957715;28;1898;-70
2023/02/04 03:38:33;;;;;;;;;;;;;;;25.10;33.04;94646.56;4953894;28;1303;-69
2023/02/04 03:40:58;;;;;;;;;;;;;;;25.09;32.80;94656.50;4949442;28;1403;-69
2023/02/04 03:43:23;;;;;;;;;;;;;;;25.09;32.94;94653.00;4936457;29;1413;-69
2023/02/04 03:45:49;;;;;;;;;;;;;;;25.09;32.73;94645.75;4944247;29;1419;-68
2023/02/04 03:48:14;;;;;;;;;;;;;;;25.10;32.89;94638.50;4951243;29;1516;-69
2023/02/04 03:50:39;;;;;;;;;;;;;;;25.10;33.04;94641.19;4944013;29;1410;-69
2023/02/04 03:53:04;;;;;;;;;;;;;;;25.11;32.87;94637.47;4946188;29;1541;-70
2023/02/04 03:55:31;;;;;;;;;;;;;;;25.09;33.04;94624.28;4944985;29;1980;-68
2023/02/04 03:57:57;;;;;;;;;;;;;;;25.09;33.06;94629.66;4950110;28;1312;-68
2023/02/04 04:00:22;;;;;;;;;;;;;;;25.10;32.90;94627.78;4940661;29;1307;-69
2023/02/04 04:02:47;;;;;;;;;;;;;;;25.09;33.07;94607.38;4946790;29;1378;-70
2023/02/04 04:05:13;;;;;;;;;;;;;;;25.08;32.92;94601.19;4948397;29;1378;-70
2023/02/04 04:07:41;;;;;;;;;;;;;;;25.09;32.99;94596.63;4938781;29;1364;-69
2023/02/04 04:10:06;;;;;;;;;;;;;;;25.07;33.31;94590.69;4941090;28;1406;-70
2023/02/04 04:12:31;;;;;;;;;;;;;;;25.08;32.91;94584.28;4948631;29;1393;-70
2023/02/04 04:14:57;;;;;;;;;;;;;;;25.07;33.11;94577.28;4936171;29;1903;-70
2023/02/04 04:17:22;;;;;;;;;;;;;;;25.07;33.08;94578.09;4949742;29;1389;-70
2023/02/04 04:19:48;;;;;;;;;;;;;;;25.07;33.09;94577.28;4931983;28;1466;-69
2023/02/04 04:22:13;;;;;;;;;;;;;;;25.07;32.88;94585.31;4952954;29;1411;-70
2023/02/04 04:24:39;;;;;;;;;;;;;;;25.07;32.90;94572.75;4942775;29;1327;-70
2023/02/04 04:27:04;;;;;;;;;;;;;;;25.07;33.12;94572.75;4944032;29;1410;-71
2023/02/04 04:29:29;;;;;;;;;;;;;;;25.08;32.95;94585.09;4936968;29;1429;-70
2023/02/04 04:31:54;;;;;;;;;;;;;;;25.08;33.03;94584.28;4936675;28;1367;-70
2023/02/04 04:34:20;;;;;;;;;;;;;;;25.09;33.17;94593.97;4947578;29;1324;-70
2023/02/04 04:36:45;;;;;;;;;;;;;;;25.07;32.98;94588.84;4948493;28;1902;-70
2023/02/04 04:39:10;;;;;;;;;;;;;;;25.08;33.15;94603.06;4951813;29;1489;-70
2023/02/04 04:41:36;;;;;;;;;;;;;;;25.07;33.13;94594.22;4941827;29;1271;-70
2023/02/04 04:44:01;;;;;;;;;;;;;;;25.07;33.17;94604.94;4943861;29;1325;-70
2023/02/04 04:46:26;;;;;;;;;;;;;;;25.07;33.34;94613.00;4944565;29;1311;-70
2023/02/04 04:48:51;;;;;;;;;;;;;;;25.08;33.07;94611.13;4938827;29;1497;-70
2023/02/04 04:51:17;;;;;;;;;;;;;;;25.08;33.17;94616.50;4961497;28;1347;-70
2023/02/04 04:53:42;;;;;;;;;;;;;;;25.08;33.10;94621.88;4930624;29;1429;-70
2023/02/04 04:56:07;;;;;;;;;;;;;;;25.08;33.02;94628.03;4944021;29;1968;-70
2023/02/04 04:58:33;;;;;;;;;;;;;;;25.09;33.28;94621.59;4957366;28;1402;-70
2023/02/04 05:00:58;;;;;;;;;;;;;;;25.09;33.25;94620.78;4948780;29;1378;-69
2023/02/04 05:03:23;;;;;;;;;;;;;;;25.09;33.34;94615.44;4953597;28;1406;-69
2023/02/04 05:05:49;;;;;;;;;;;;;;;25.09;33.31;94618.09;4934080;29;1308;-70
2023/02/04 05:08:15;;;;;;;;;;;;;;;25.08;33.06;94622.66;4952672;29;1418;-70
2023/02/04 05:10:41;;;;;;;;;;;;;;;25.07;32.99;94622.91;4944478;29;1425;-70
2023/02/04 05:13:07;;;;;;;;;;;;;;;25.07;33.22;94620.22;4944273;29;1549;-70
2023/02/04 05:15:32;;;;;;;;;;;;;;;25.09;33.30;94618.09;4950488;29;1958;-70
2023/02/04 05:17:57;;;;;;;;;;;;;;;25.10;33.23;94611.69;4942008;28;1211;-70
2023/02/04 05:20:23;;;;;;;;;;;;;;;25.09;33.15;94631.53;4945018;29;1367;-70
2023/02/04 05:22:48;;;;;;;;;;;;;;;25.10;33.37;94641.19;4951506;28;1553;-70
2023/02/04 05:25:15;;;;;;;;;;;;;;;25.10;33.29;94642.03;4956511;29;1335;-69
2023/02/04 05:27:40;;;;;;;;;;;;;;;25.12;33.28;94628.34;4937424;28;1456;-70
2023/02/04 05:30:06;;;;;;;;;;;;;;;25.15;33.39;94643.19;4946523;28;1289;-69
2023/02/04 05:32:31;;;;;;;;;;;;;;;25.14;33.27;94647.75;4954621;28;1374;-70
2023/02/04 05:34:56;;;;;;;;;;;;;;;25.15;33.30;94648.56;4938732;28;1969;-69
2023/02/04 05:37:22;;;;;;;;;;;;;;;25.15;33.17;94648.56;4939848;29;1355;-71
2023/02/04 05:39:47;;;;;;;;;;;;;;;25.14;33.54;94653.13;4928816;29;1295;-70
2023/02/04 05:42:12;;;;;;;;;;;;;;;25.15;33.38;94648.56;4943372;29;1387;-69
2023/02/04 05:44:37;;;;;;;;;;;;;;;25.15;33.58;94665.47;4948255;29;1362;-70
2023/02/04 05:47:03;;;;;;;;;;;;;;;25.15;33.56;94670.84;4949427;29;1437;-70
2023/02/04 05:49:28;;;;;;;;;;;;;;;25.13;33.49;94654.97;4952080;28;1319;-70
2023/02/04 05:51:53;;;;;;;;;;;;;;;25.14;33.44;94669.22;4930718;28;1465;-70
2023/02/04 05:54:19;;;;;;;;;;;;;;;25.14;33.74;94658.50;4942565;29;1362;-69
2023/02/04 05:56:47;;;;;;;;;;;;;;;25.14;33.42;94653.13;4968113;28;1906;-70
2023/02/04 05:59:13;;;;;;;;;;;;;;;25.16;33.50;94650.19;4963714;28;1299;-68
2023/02/04 06:01:38;;;;;;;;;;;;;;;25.15;33.72;94638.63;4940289;29;1462;-70
2023/02/04 06:04:03;;;;;;;;;;;;;;;25.22;33.43;94649.25;4961938;28;1437;-67
2023/02/04 06:06:29;;;;;;;;;;;;;;;25.17;33.39;94652.63;4962607;28;1406;-68
2023/02/04 06:08:54;;;;;;;;;;;;;;;25.18;32.95;94648.88;4949740;29;1486;-68
2023/02/04 06:11:19;;;;;;;;;;;;;;;25.15;32.82;94644.00;4948270;29;1471;-68
2023/02/04 06:13:45;;;;;;;;;;;;;;;24.60;27.59;94647.31;4936611;29;1466;-67
2023/02/04 06:16:10;;;;;;;;;;;;;;;23.68;27.10;94635.47;4962302;28;1906;-68
2023/02/04 06:18:35;;;;;;;;;;;;;;;23.11;28.41;94630.66;4940979;29;1409;-67
2023/02/04 06:21:03;;;;;;;;;;;;;;;22.93;28.91;94637.91;4956019;29;1458;-67
2023/02/04 06:23:28;;;;;;;;;;;;;;;22.89;29.00;94642.91;4950916;29;1343;-68
2023/02/04 06:25:54;;;;;;;;;;;;;;;22.85;28.90;94637.22;4945282;28;1615;-67
2023/02/04 06:28:19;;;;;;;;;;;;;;;22.84;29.09;94640.91;4971635;28;1454;-68
2023/02/04 06:30:44;;;;;;;;;;;;;;;22.82;28.88;94651.00;4956850;29;893;-67
2023/02/04 06:33:10;;;;;;;;;;;;;;;22.76;28.54;94651.94;4956521;28;799;-68
2023/02/04 06:35:35;;;;;;;;;;;;;;;22.72;28.47;94657.97;4965038;28;1965;-66
2023/02/04 06:38:00;;;;;;;;;;;;;;;22.64;28.37;94657.25;4935443;29;1279;-68
2023/02/04 06:40:25;;;;;;;;;;;;;;;22.59;28.21;94654.41;4938771;29;1245;-67
2023/02/04 06:42:51;;;;;;;;;;;;;;;22.56;28.25;94652.19;4955373;29;1497;-69
2023/02/04 06:45:16;;;;;;;;;;;;;;;22.54;27.95;94654.31;4953851;29;1419;-69
2023/02/04 06:47:41;;;;;;;;;;;;;;;22.51;27.79;94653.94;4946301;28;1343;-68
2023/02/04 06:50:07;;;;;;;;;;;;;;;22.46;27.62;94657.28;4955645;29;1423;-68
2023/02/04 06:52:32;;;;;;;;;;;;;;;22.42;28.09;94653.41;4948481;28;1653;-68
2023/02/04 06:54:57;;;;;;;;;;;;;;;22.49;27.87;94659.50;4950648;29;1969;-65
2023/02/04 06:57:24;;;;;;;;;;;;;;;22.49;27.62;94653.34;4969685;28;1386;-68
2023/02/04 06:59:49;;;;;;;;;;;;;;;22.15;26.12;94650.25;4942384;28;1391;-67
2023/02/04 07:02:15;;;;;;;;;;;;;;;21.49;25.85;94641.09;4940070;29;1517;-66
2023/02/04 07:04:42;;;;;;;;;;;;;;;21.20;25.04;94640.69;4940028;29;1438;-67
2023/02/04 07:07:08;;;;;;;;;;;;;;;21.24;26.18;94647.22;4942199;29;1300;-67
2023/02/04 07:09:33;;;;;;;;;;;;;;;21.76;26.68;94645.13;4932296;29;1399;-68
2023/02/04 07:11:58;;;;;;;;;;;;;;;22.20;26.91;94648.56;4938204;28;1543;-67
2023/02/04 07:14:23;;;;;;;;;;;;;;;;;;4936909;29;878;-65
2023/02/04 07:16:49;;;;;;;;;;;;;;;22.66;26.55;94636.44;4962653;28;1907;-67
2023/02/04 07:19:14;;;;;;;;;;;;;;;22.84;26.88;94632.06;4936853;29;1438;-67
2023/02/04 07:21:39;;;;;;;;;;;;;;;22.92;26.56;94631.75;4927266;29;957;-67
2023/02/04 07:24:06;;;;;;;;;;;;;;;23.11;27.08;94643.22;4952385;28;1418;-66
2023/02/04 07:26:33;;;;;;;;;;;;;;;23.03;26.04;94632.84;4946424;29;1379;-67
2023/02/04 07:28:58;;;;;;;;;;;;;;;23.10;26.36;94631.69;4939611;28;1460;-67
2023/02/04 07:31:23;;;;;;;;;;;;;;;23.25;26.95;94635.78;4937981;29;1505;-67
2023/02/04 07:33:48;;;;;;;;;;;;;;;23.38;26.87;94624.84;4947954;28;1528;-65
2023/02/04 07:36:14;;;;;;;;;;;;;;;23.53;26.93;94627.06;4954614;29;1985;-66
2023/02/04 07:38:39;;;;;;;;;;;;;;;23.65;26.88;94613.66;4948801;29;1314;-66
2023/02/04 07:41:04;;;;;;;;;;;;;;;23.75;26.67;94619.28;4946470;29;1459;-67
2023/02/04 07:43:29;;;;;;;;;;;;;;;23.84;26.90;94625.09;4935696;29;1217;-65
2023/02/04 07:45:55;;;;;;;;;;;;;;;23.87;26.95;94632.66;4966679;28;1269;-66
2023/02/04 07:48:20;;;;;;;;;;;;;;;23.90;26.83;94627.63;4951508;28;1254;-66
2023/02/04 07:50:45;;;;;;;;;;;;;;;23.94;26.80;94626.13;4942678;29;1521;-67
2023/02/04 07:53:11;;;;;;;;;;;;;;;23.97;26.83;94622.97;4955366;29;936;-67
2023/02/04 07:55:36;;;;;;;;;;;;;;;24.02;26.82;94615.06;4935948;28;1977;-66
2023/02/04 07:58:02;;;;;;;;;;;;;;;24.02;27.00;94612.38;4947668;29;1285;-67
2023/02/04 08:00:27;;;;;;;;;;;;;;;24.01;26.18;94613.41;4940808;28;1426;-67
2023/02/04 08:02:52;;;;;;;;;;;;;;;23.74;26.41;94605.09;4942440;29;1359;-66
2023/02/04 08:05:17;;;;;;;;;;;;;;;23.79;26.90;94605.19;4951359;29;1508;-67
2023/02/04 08:07:43;;;;;;;;;;;;;;;23.90;26.80;94602.72;4935485;28;1407;-65
2023/02/04 08:10:08;;;;;;;;;;;;;;;23.99;26.69;94606.66;4962321;28;1409;-67
2023/02/04 08:12:34;;;;;;;;;;;;;;;24.05;26.77;94605.72;4942420;29;1399;-66
2023/02/04 08:15:00;;;;;;;;;;;;;;;24.10;26.91;94596.97;4941879;29;1898;-67
2023/02/04 08:17:26;;;;;;;;;;;;;;;24.15;27.03;94615.84;4941373;28;1501;-67
2023/02/04 08:19:51;;;;;;;;;;;;;;;24.18;27.07;94610.81;4952671;28;1485;-66
2023/02/04 08:22:16;;;;;;;;;;;;;;;24.20;27.09;94599.84;4951328;28;1338;-67
2023/02/04 08:24:41;;;;;;;;;;;;;;;24.22;27.23;94605.81;4944657;29;1443;-67
2023/02/04 08:27:07;;;;;;;;;;;;;;;24.23;27.07;94604.75;4943455;28;1418;-67
2023/02/04 08:29:32;;;;;;;;;;;;;;;24.29;27.14;94608.34;4926587;29;1187;-65
2023/02/04 08:31:57;;;;;;;;;;;;;;;24.30;27.15;94604.59;4945094;29;1311;-67
2023/02/04 08:34:22;;;;;;;;;;;;;;;24.32;27.18;94602.50;4953307;29;1421;-66
2023/02/04 08:36:48;;;;;;;;;;;;;;;24.32;27.34;94608.66;4955188;29;1907;-68
2023/02/04 08:39:13;;;;;;;;;;;;;;;24.33;27.26;94598.75;4950955;28;1343;-65
2023/02/04 08:41:38;;;;;;;;;;;;;;;24.34;27.25;94608.44;4925646;29;1383;-66
2023/02/04 08:44:04;;;;;;;;;;;;;;;24.34;27.27;94603.06;4937236;29;1437;-66
2023/02/04 08:46:29;;;;;;;;;;;;;;;24.35;27.27;94597.47;4954811;29;817;-66
2023/02/04 08:48:54;;;;;;;;;;;;;;;24.36;27.19;94600.94;4954845;29;909;-66
2023/02/04 08:51:19;;;;;;;;;;;;;;;24.37;27.22;94599.91;4955182;28;790;-66
2023/02/04 08:53:45;;;;;;;;;;;;;;;24.38;27.26;94607.69;4939726;29;1310;-66
2023/02/04 08:56:15;;;;;;;;;;;;;;;24.39;27.33;94612.03;4952778;28;1968;-66
2023/02/04 08:58:40;;;;;;;;;;;;;;;24.39;27.27;94613.88;4940792;29;1402;-66
2023/02/04 09:01:06;;;;;;;;;;;;;;;24.41;27.29;94614.47;4939347;29;977;-67
2023/02/04 09:03:31;;;;;;;;;;;;;;;24.40;27.44;94616.34;4931259;29;1094;-67
2023/02/04 09:05:56;;;;;;;;;;;;;;;24.42;27.43;94616.91;4954326;28;1370;-66
2023/02/04 09:08:21;;;;;;;;;;;;;;;24.43;27.49;94620.44;4958424;29;933;-67
2023/02/04 09:10:47;;;;;;;;;;;;;;;24.43;27.24;94612.38;4958670;28;1021;-66
2023/02/04 09:13:13;;;;;;;;;;;;;;;24.44;27.44;94612.13;4963185;28;1160;-66
2023/02/04 09:15:38;;;;;;;;;;;;;;;24.46;27.45;94602.00;4947679;29;1968;-66
2023/02/04 09:18:12;;;;;;;;;;;;;;;24.46;27.33;94602.00;4958191;28;885;-66
2023/02/04 09:20:38;;;;;;;;;;;;;;;24.46;27.40;94604.69;4958968;28;1331;-66
2023/02/04 09:23:05;;;;;;;;;;;;;;;24.46;27.22;94604.69;4955384;29;1379;-66
2023/02/04 09:25:31;;;;;;;;;;;;;;;24.48;27.35;94590.19;4950738;29;1451;-66
2023/02/04 09:27:56;;;;;;;;;;;;;;;24.47;27.39;94594.75;4949652;29;1453;-65
2023/02/04 09:30:21;;;;;;;;;;;;;;;24.48;27.43;94598.25;4958027;29;940;-65
2023/02/04 09:32:46;;;;;;;;;;;;;;;24.49;27.41;94597.22;4962709;28;1152;-66
2023/02/04 09:35:12;;;;;;;;;;;;;;;24.49;27.22;94602.56;4959104;28;1963;-65
2023/02/04 09:37:37;;;;;;;;;;;;;;;24.46;27.33;94593.94;4941128;29;1371;-66
2023/02/04 09:40:02;;;;;;;;;;;;;;;24.45;27.33;94586.16;4948622;28;1377;-66
2023/02/04 09:42:28;;;;;;;;;;;;;;;24.43;27.47;94581.03;4952214;28;1541;-67
2023/02/04 09:44:53;;;;;;;;;;;;;;;24.43;27.50;94581.03;4962364;28;1303;-66
2023/02/04 09:47:21;;;;;;;;;;;;;;;24.43;27.35;94583.72;4971613;28;1274;-66
2023/02/04 09:49:46;;;;;;;;;;;;;;;24.41;27.31;94580.41;4959790;28;1247;-66
2023/02/04 09:52:13;;;;;;;;;;;;;;;24.43;27.61;94572.16;4957700;28;1252;-66
2023/02/04 09:54:38;;;;;;;;;;;;;;;24.44;27.29;94579.16;4968147;28;1196;-67
2023/02/04 09:57:17;;;;;;;;;;;;;;;24.43;27.56;94572.97;4957468;28;1977;-66
2023/02/04 09:59:43;;;;;;;;;;;;;;;24.42;27.36;94581.25;4961982;28;1239;-67
2023/02/04 10:02:25;;;;;;;;;;;;;;;24.41;27.21;94563.50;4947870;28;1243;-67
2023/02/04 10:04:52;;;;;;;;;;;;;;;24.43;27.59;94566.81;4955764;28;1248;-67
2023/02/04 10:07:21;;;;;;;;;;;;;;;24.42;27.38;94555.25;4953705;28;1326;-66
2023/02/04 10:09:47;;;;;;;;;;;;;;;24.43;27.51;94551.53;4969028;28;1635;-66
2023/02/04 10:12:12;;;;;;;;;;;;;;;24.46;27.52;94548.38;4946730;28;1610;-66
2023/02/04 10:14:39;;;;;;;;;;;;;;;24.49;27.33;94548.94;4956636;28;1356;-66
2023/02/04 10:17:04;;;;;;;;;;;;;;;24.45;27.47;94538.72;4958019;28;1898;-65
2023/02/04 10:19:30;;;;;;;;;;;;;;;24.45;27.41;94535.22;4956789;28;913;-65
2023/02/04 10:21:55;;;;;;;;;;;;;;;24.44;27.20;94533.56;4955541;28;1437;-66
2023/02/04 10:24:29;;;;;;;;;;;;;;;24.44;27.53;94534.38;4946780;28;1378;-65
2023/02/04 10:27:05;;;;;;;;;;;;;;;24.44;27.30;94531.69;4953287;28;1113;-66
2023/02/04 10:29:30;;;;;;;;;;;;;;;24.46;27.58;94526.91;4965075;28;834;-65
2023/02/04 10:31:55;;;;;;;;;;;;;;;24.46;27.27;94523.44;4956884;29;873;-66
2023/02/04 10:34:31;;;;;;;;;;;;;;;24.47;27.37;94530.41;4949776;29;1213;-65
2023/02/04 10:36:57;;;;;;;;;;;;;;;24.48;27.45;94528.53;4971191;28;1902;-66
2023/02/04 10:39:26;;;;;;;;;;;;;;;24.48;27.19;94513.28;4956991;28;861;-66
2023/02/04 10:41:56;;;;;;;;;;;;;;;24.48;27.39;94529.38;4955395;28;1555;-67
2023/02/04 10:44:25;;;;;;;;;;;;;;;24.48;27.47;94531.22;4955160;29;1631;-66
2023/02/04 10:47:01;;;;;;;;;;;;;;;24.49;27.48;94514.09;4961824;28;1742;-66
2023/02/04 10:49:27;;;;;;;;;;;;;;;24.49;27.30;94519.44;4956207;28;1472;-66
2023/02/04 10:51:52;;;;;;;;;;;;;;;24.48;27.43;94521.31;4962354;28;1453;-67
2023/02/04 10:54:30;;;;;;;;;;;;;;;24.49;27.39;94522.13;4956347;28;1583;-66
2023/02/04 10:57:08;;;;;;;;;;;;;;;24.49;27.45;94522.13;4949712;28;1915;-66
2023/02/04 10:59:34;;;;;;;;;;;;;;;24.48;27.42;94513.28;4953904;28;1646;-66
2023/02/04 11:02:01;;;;;;;;;;;;;;;24.49;27.45;94508.72;4950579;28;1571;-67
2023/02/04 11:04:27;;;;;;;;;;;;;;;24.49;27.49;94512.22;4947788;28;1306;-67
2023/02/04 11:06:54;;;;;;;;;;;;;;;24.52;27.47;94505.56;4945648;28;1398;-67
2023/02/04 11:09:19;;;;;;;;;;;;;;;24.52;27.20;94508.25;4938978;28;1558;-67
2023/02/04 11:11:46;;;;;;;;;;;;;;;24.50;27.31;94500.44;4942988;28;1270;-66
2023/02/04 11:14:28;;;;;;;;;;;;;;;24.51;27.46;94495.91;4944528;28;1305;-66
2023/02/04 11:16:57;;;;;;;;;;;;;;;24.50;27.26;94499.63;4950967;28;1985;-65
2023/02/04 11:19:32;;;;;;;;;;;;;;;24.50;27.35;94491.56;4947278;28;1261;-65
2023/02/04 11:22:17;;;;;;;;;;;;;;;24.51;27.36;94504.75;4943905;28;1264;-65
2023/02/04 11:24:42;;;;;;;;;;;;;;;24.51;27.37;94493.22;4953672;28;1742;-67
2023/02/04 11:27:20;;;;;;;;;;;;;;;24.50;27.24;94503.09;4957011;28;1363;-67
2023/02/04 11:29:46;;;;;;;;;;;;;;;24.46;26.43;94507.34;4954429;29;1391;-65
2023/02/04 11:32:29;;;;;;;;;;;;;;;24.36;26.75;94505.28;4938559;28;1357;-65
2023/02/04 11:35:04;;;;;;;;;;;;;;;24.36;27.06;94505.28;4955572;28;1960;-67
2023/02/04 11:37:34;;;;;;;;;;;;;;;24.37;27.16;94512.25;4952332;28;1230;-67
2023/02/04 11:40:00;;;;;;;;;;;;;;;24.42;27.05;94512.34;4954156;28;1364;-66
2023/02/04 11:42:30;;;;;;;;;;;;;;;24.44;27.21;94515.59;4947839;28;1424;-66
2023/02/04 11:45:00;;;;;;;;;;;;;;;24.47;27.07;94519.69;4948949;28;1626;-66
2023/02/04 11:47:26;;;;;;;;;;;;;;;24.49;27.17;94519.44;4954438;28;1383;-66
2023/02/04 11:49:56;;;;;;;;;;;;;;;24.50;27.36;94518.38;4969962;28;1625;-66
2023/02/04 11:52:22;;;;;;;;;;;;;;;24.52;27.16;94516.28;4954500;28;1606;-66
2023/02/04 11:54:59;;;;;;;;;;;;;;;24.50;27.16;94521.88;4937411;28;1599;-66
2023/02/04 11:57:25;;;;;;;;;;;;;;;24.51;27.64;94515.47;4955160;29;1661;-66
2023/02/04 11:59:51;;;;;;;;;;;;;;;24.51;27.33;94507.44;4955008;28;1654;-66
2023/02/04 12:02:17;;;;;;;;;;;;;;;24.52;27.21;94501.00;4949560;28;1598;-66
2023/02/04 12:04:50;;;;;;;;;;;;;;;24.52;27.57;94495.63;4939126;29;1393;-66
2023/02/04 12:07:20;;;;;;;;;;;;;;;24.52;27.68;94489.47;4943756;28;1351;-67
2023/02/04 12:09:46;;;;;;;;;;;;;;;24.52;27.66;94490.28;4954220;28;1610;-66
2023/02/04 12:12:21;;;;;;;;;;;;;;;24.52;27.35;94489.47;4954745;28;1471;-65
2023/02/04 12:14:55;;;;;;;;;;;;;;;24.50;27.57;94489.69;4954660;28;1705;-66
2023/02/04 12:17:20;;;;;;;;;;;;;;;24.43;27.09;94492.53;4945174;28;1971;-65
2023/02/04 12:19:45;;;;;;;;;;;;;;;24.44;27.59;94493.34;4952454;28;1571;-66
2023/02/04 12:22:12;;;;;;;;;;;;;;;24.45;27.29;94485.09;4945909;29;1418;-67
2023/02/04 12:24:37;;;;;;;;;;;;;;;24.46;27.69;94486.69;4954666;29;1643;-66
2023/02/04 12:27:02;;;;;;;;;;;;;;;24.45;27.50;94484.28;4954894;29;1677;-66
2023/02/04 12:29:28;;;;;;;;;;;;;;;24.47;27.41;94482.13;4942707;28;1314;-66
2023/02/04 12:31:53;;;;;;;;;;;;;;;24.48;27.35;94482.94;4948594;29;1380;-67
2023/02/04 12:34:18;;;;;;;;;;;;;;;24.48;27.47;94482.94;4950758;29;1339;-67
2023/02/04 12:36:43;;;;;;;;;;;;;;;24.49;27.63;94479.22;4951320;29;1906;-67
2023/02/04 12:39:12;;;;;;;;;;;;;;;24.49;27.39;94476.56;4943537;28;1347;-66
2023/02/04 12:41:37;;;;;;;;;;;;;;;24.47;27.46;94474.09;4946367;29;1400;-65
2023/02/04 12:44:03;;;;;;;;;;;;;;;24.49;27.47;94482.72;4953537;29;1732;-64
2023/02/04 12:46:28;;;;;;;;;;;;;;;24.26;25.85;94478.28;4954556;29;1666;-65
2023/02/04 12:48:54;;;;;;;;;;;;;;;23.76;26.19;94476.28;4954787;28;881;-65
2023/02/04 12:51:20;;;;;;;;;;;;;;;23.35;26.67;94476.25;4943253;28;1305;-65
2023/02/04 12:53:45;;;;;;;;;;;;;;;23.11;26.90;94474.66;4954703;29;914;-66